Time;durP1;ratioP1;P1;durP2;ratioP2;P2;SDS_P1;SDS_P2;PMS_P1;PMS_P2;Temp;Humidity;BMP_temperature;BMP_pressure;BME280_temperature;BME280_humidity;BME280_pressure;Samples;Min_cycle;Max_cycle;Signal;HPM_P1;HPM_P2
2022/07/06 00:00:35;;;;;;;24.77;8.87;;;;;;;;;;743757;188;629296;-65
2022/07/06 00:03:01;;;;;;;47.80;10.53;;;;;;;;;;742832;187;624256;-63
2022/07/06 00:05:27;;;;;;;22.05;9.30;;;;;;;;;;749511;187;633749;-64
2022/07/06 00:07:53;;;;;;;16.03;9.00;;;;;;;;;;752894;185;625019;-63
2022/07/06 00:10:19;;;;;;;20.23;9.90;;;;;;;;;;744503;187;620428;-63
2022/07/06 00:12:45;;;;;;;21.37;8.83;;;;;;;;;;750064;187;641431;-63
2022/07/06 00:15:10;;;;;;;15.37;8.20;;;;;;;;;;746958;189;635592;-64
2022/07/06 00:17:36;;;;;;;14.23;7.47;;;;;;;;;;745787;187;627823;-63
2022/07/06 00:20:02;;;;;;;28.50;9.10;;;;;;;;;;740501;187;620823;-64
2022/07/06 00:22:28;;;;;;;58.53;10.63;;;;;;;;;;748303;186;632190;-63
2022/07/06 00:24:54;;;;;;;8.37;7.47;;;;;;;;;;747606;187;678218;-64
2022/07/06 00:27:20;;;;;;;31.60;9.63;;;;;;;;;;744726;187;621887;-63
2022/07/06 00:29:46;;;;;;;24.90;8.73;;;;;;;;;;748628;188;614044;-63
2022/07/06 00:32:12;;;;;;;12.73;8.57;;;;;;;;;;743562;188;615257;-63
2022/07/06 00:34:39;;;;;;;18.37;9.97;;;;;;;;;;743622;187;668058;-64
2022/07/06 00:37:03;;;;;;;14.80;9.30;;;;;;;;;;748114;187;646381;-63
2022/07/06 00:39:29;;;;;;;54.17;10.10;;;;;;;;;;753649;187;624539;-63
2022/07/06 00:41:55;;;;;;;16.50;9.10;;;;;;;;;;748117;186;622857;-62
2022/07/06 00:44:21;;;;;;;19.07;8.20;;;;;;;;;;745836;187;617119;-64
2022/07/06 00:46:47;;;;;;;13.43;8.40;;;;;;;;;;746993;187;616221;-62
2022/07/06 00:50:13;;;;;;;23.10;9.63;;;;;;;;;;745573;188;614846;-62
2022/07/06 00:51:38;;;;;;;21.90;10.23;;;;;;;;;;744311;187;628087;-63
2022/07/06 00:54:04;;;;;;;45.50;11.30;;;;;;;;;;749238;187;649201;-62
2022/07/06 00:56:31;;;;;;;32.53;11.20;;;;;;;;;;743178;187;629898;-63
2022/07/06 00:58:57;;;;;;;34.77;12.30;;;;;;;;;;746316;187;623453;-61
2022/07/06 01:01:23;;;;;;;30.90;11.97;;;;;;;;;;748098;187;631407;-61
2022/07/06 01:03:49;;;;;;;17.50;12.20;;;;;;;;;;751672;187;624992;-62
2022/07/06 01:06:15;;;;;;;19.87;12.50;;;;;;;;;;744450;187;628716;-62
2022/07/06 01:08:41;;;;;;;18.33;12.23;;;;;;;;;;743505;188;646384;-61
2022/07/06 01:11:06;;;;;;;27.47;12.13;;;;;;;;;;745787;189;639239;-62
2022/07/06 01:13:32;;;;;;;15.33;11.60;;;;;;;;;;741631;186;915758;-61
2022/07/06 01:15:58;;;;;;;18.43;12.07;;;;;;;;;;744039;187;632841;-61
2022/07/06 01:18:24;;;;;;;14.53;9.53;;;;;;;;;;748640;187;627416;-61
2022/07/06 01:20:50;;;;;;;20.60;10.80;;;;;;;;;;745154;187;706394;-62
2022/07/06 01:23:16;;;;;;;17.40;10.13;;;;;;;;;;743353;187;628925;-61
2022/07/06 01:25:42;;;;;;;19.03;11.40;;;;;;;;;;741163;187;625802;-61
2022/07/06 01:28:08;;;;;;;56.23;12.80;;;;;;;;;;737645;191;619408;-61
2022/07/06 01:30:33;;;;;;;12.23;9.90;;;;;;;;;;745071;187;644973;-63
2022/07/06 01:32:59;;;;;;;16.27;9.13;;;;;;;;;;741814;188;732202;-61
2022/07/06 01:35:26;;;;;;;26.23;9.00;;;;;;;;;;748025;188;626561;-61
2022/07/06 01:37:52;;;;;;;32.23;11.10;;;;;;;;;;743300;188;631180;-61
2022/07/06 01:40:18;;;;;;;28.47;10.37;;;;;;;;;;743505;187;623758;-61
2022/07/06 01:42:43;;;;;;;27.13;9.43;;;;;;;;;;749009;187;625725;-61
2022/07/06 01:45:10;;;;;;;29.70;8.77;;;;;;;;;;744544;187;618807;-61
2022/07/06 01:47:36;;;;;;;28.77;8.80;;;;;;;;;;744681;187;615171;-60
2022/07/06 01:50:01;;;;;;;21.07;10.20;;;;;;;;;;747080;188;624995;-61
2022/07/06 01:52:27;;;;;;;40.53;11.20;;;;;;;;;;747249;187;631548;-61
2022/07/06 01:54:53;;;;;;;36.93;11.97;;;;;;;;;;737618;189;632317;-60
2022/07/06 01:57:19;;;;;;;31.17;12.70;;;;;;;;;;748846;187;617143;-61
2022/07/06 01:59:45;;;;;;;29.37;11.33;;;;;;;;;;746883;187;621325;-60
2022/07/06 02:02:11;;;;;;;19.93;10.43;;;;;;;;;;746639;188;637525;-60
2022/07/06 02:04:36;;;;;;;32.63;11.77;;;;;;;;;;745577;187;621894;-61
2022/07/06 02:07:02;;;;;;;23.50;10.27;;;;;;;;;;748966;188;613845;-60
2022/07/06 02:09:28;;;;;;;28.50;11.40;;;;;;;;;;743392;187;628020;-60
2022/07/06 02:11:54;;;;;;;24.03;11.10;;;;;;;;;;742059;189;614663;-61
2022/07/06 02:14:20;;;;;;;20.73;11.17;;;;;;;;;;746088;188;616611;-60
2022/07/06 02:16:46;;;;;;;53.93;12.67;;;;;;;;;;743272;187;625538;-62
2022/07/06 02:19:12;;;;;;;44.93;12.97;;;;;;;;;;742160;188;646371;-60
2022/07/06 02:21:38;;;;;;;54.80;13.90;;;;;;;;;;744196;187;636572;-60
2022/07/06 02:24:04;;;;;;;35.30;13.00;;;;;;;;;;747167;187;623808;-60
2022/07/06 02:26:30;;;;;;;46.37;13.67;;;;;;;;;;742822;186;620882;-61
2022/07/06 02:28:56;;;;;;;29.00;12.57;;;;;;;;;;740892;187;799747;-60
2022/07/06 02:31:22;;;;;;;48.07;12.43;;;;;;;;;;748482;188;616048;-60
2022/07/06 02:33:48;;;;;;;37.33;12.80;;;;;;;;;;743730;187;632480;-61
2022/07/06 02:36:14;;;;;;;51.67;11.30;;;;;;;;;;744782;187;631096;-60
2022/07/06 02:38:39;;;;;;;34.90;12.60;;;;;;;;;;747375;188;626278;-59
2022/07/06 02:41:05;;;;;;;39.70;13.33;;;;;;;;;;745702;187;624314;-60
2022/07/06 02:43:31;;;;;;;63.00;14.30;;;;;;;;;;744462;187;656538;-60
2022/07/06 02:45:57;;;;;;;60.00;13.90;;;;;;;;;;743500;188;626040;-59
2022/07/06 02:48:23;;;;;;;52.40;13.63;;;;;;;;;;752886;187;627058;-60
2022/07/06 02:50:49;;;;;;;60.67;14.40;;;;;;;;;;747334;187;629069;-60
2022/07/06 02:53:15;;;;;;;37.50;12.80;;;;;;;;;;745582;187;627423;-60
2022/07/06 02:55:40;;;;;;;31.10;12.77;;;;;;;;;;750841;187;618025;-60
2022/07/06 02:58:06;;;;;;;46.13;13.77;;;;;;;;;;746216;186;643856;-60
2022/07/06 03:00:32;;;;;;;55.13;14.10;;;;;;;;;;747294;187;647768;-60
2022/07/06 03:02:58;;;;;;;57.83;15.00;;;;;;;;;;746610;187;634192;-59
2022/07/06 03:05:24;;;;;;;80.70;15.00;;;;;;;;;;743702;187;633667;-59
2022/07/06 03:07:50;;;;;;;48.83;14.50;;;;;;;;;;746572;185;632973;-60
2022/07/06 03:10:16;;;;;;;27.03;13.63;;;;;;;;;;745155;187;627676;-60
2022/07/06 03:12:42;;;;;;;29.20;14.00;;;;;;;;;;752474;185;616121;-60
2022/07/06 03:15:10;;;;;;;37.47;12.73;;;;;;;;;;742697;187;631037;-59
2022/07/06 03:17:36;;;;;;;21.90;10.40;;;;;;;;;;744792;186;626463;-59
2022/07/06 03:20:02;;;;;;;33.97;12.33;;;;;;;;;;748134;188;622514;-60
2022/07/06 03:22:29;;;;;;;26.93;11.27;;;;;;;;;;737578;187;738028;-60
2022/07/06 03:24:55;;;;;;;21.27;10.27;;;;;;;;;;740960;184;647161;-60
2022/07/06 03:27:21;;;;;;;33.67;11.17;;;;;;;;;;745860;188;633499;-60
2022/07/06 03:29:46;;;;;;;21.73;9.33;;;;;;;;;;742834;188;627296;-60
2022/07/06 03:32:12;;;;;;;19.83;10.23;;;;;;;;;;742319;187;625946;-60
2022/07/06 03:34:38;;;;;;;40.93;11.37;;;;;;;;;;745156;187;644156;-60
2022/07/06 03:37:05;;;;;;;37.47;10.73;;;;;;;;;;748635;187;637603;-60
2022/07/06 03:39:30;;;;;;;30.83;11.30;;;;;;;;;;742668;188;628942;-60
2022/07/06 03:41:56;;;;;;;36.60;12.03;;;;;;;;;;743642;188;630572;-60
2022/07/06 03:44:22;;;;;;;28.50;10.97;;;;;;;;;;744087;187;635159;-60
2022/07/06 03:46:47;;;;;;;35.23;11.70;;;;;;;;;;742886;188;644198;-61
2022/07/06 03:49:13;;;;;;;21.50;11.40;;;;;;;;;;745241;187;624866;-60
2022/07/06 03:51:40;;;;;;;33.83;12.37;;;;;;;;;;744968;187;629072;-61
2022/07/06 03:54:05;;;;;;;20.50;12.30;;;;;;;;;;741738;188;628567;-60
2022/07/06 03:56:32;;;;;;;42.03;13.43;;;;;;;;;;740231;185;672251;-59
2022/07/06 03:58:57;;;;;;;36.43;17.00;;;;;;;;;;751324;185;634392;-60
2022/07/06 04:01:23;;;;;;;29.10;17.90;;;;;;;;;;747866;188;627384;-60
2022/07/06 04:03:49;;;;;;;31.43;18.80;;;;;;;;;;748588;186;649029;-60
2022/07/06 04:06:14;;;;;;;27.00;16.03;;;;;;;;;;743562;187;671448;-61
2022/07/06 04:08:40;;;;;;;34.17;18.33;;;;;;;;;;746084;188;679178;-60
2022/07/06 04:11:06;;;;;;;29.83;17.43;;;;;;;;;;745278;187;624099;-59
2022/07/06 04:13:32;;;;;;;43.30;21.57;;;;;;;;;;744195;186;620056;-61
2022/07/06 04:15:58;;;;;;;36.53;20.60;;;;;;;;;;747422;187;633042;-60
2022/07/06 04:18:24;;;;;;;52.40;22.27;;;;;;;;;;744199;188;634462;-60
2022/07/06 04:20:50;;;;;;;45.87;23.43;;;;;;;;;;744817;188;629184;-60
2022/07/06 04:23:16;;;;;;;46.97;23.97;;;;;;;;;;745290;187;643153;-60
2022/07/06 04:25:42;;;;;;;62.70;25.17;;;;;;;;;;742034;188;624576;-61
2022/07/06 04:28:07;;;;;;;52.70;27.97;;;;;;;;;;744959;186;891435;-60
2022/07/06 04:30:33;;;;;;;57.10;27.80;;;;;;;;;;745534;188;623073;-60
2022/07/06 04:32:59;;;;;;;48.63;27.97;;;;;;;;;;750955;187;623017;-60
2022/07/06 04:35:25;;;;;;;54.93;27.60;;;;;;;;;;741867;187;644564;-61
2022/07/06 04:37:51;;;;;;;62.03;31.97;;;;;;;;;;742390;188;663634;-61
2022/07/06 04:40:17;;;;;;;78.97;33.13;;;;;;;;;;747340;189;614215;-61
2022/07/06 04:42:43;;;;;;;62.40;32.53;;;;;;;;;;742814;186;634608;-61
2022/07/06 04:45:09;;;;;;;69.60;36.30;;;;;;;;;;743329;188;627088;-62
2022/07/06 04:47:35;;;;;;;72.00;36.38;;;;;;;;;;743321;188;638103;-61
2022/07/06 04:50:01;;;;;;;67.73;32.67;;;;;;;;;;738431;191;628707;-60
2022/07/06 04:52:27;;;;;;;62.73;34.30;;;;;;;;;;737516;189;627798;-61
2022/07/06 04:54:53;;;;;;;70.27;35.50;;;;;;;;;;735859;189;623254;-60
2022/07/06 04:57:19;;;;;;;66.53;35.50;;;;;;;;;;740034;189;622338;-61
2022/07/06 04:59:45;;;;;;;82.40;34.93;;;;;;;;;;736078;191;633122;-61
2022/07/06 05:02:10;;;;;;;61.45;36.15;;;;;;;;;;747746;187;627115;-60
2022/07/06 05:04:36;;;;;;;72.70;37.47;;;;;;;;;;746023;188;838046;-60
2022/07/06 05:07:02;;;;;;;87.40;40.63;;;;;;;;;;742553;188;635875;-61
2022/07/06 05:09:28;;;;;;;80.50;40.90;;;;;;;;;;744966;188;624550;-61
2022/07/06 05:11:54;;;;;;;81.47;43.10;;;;;;;;;;750265;187;626758;-63
2022/07/06 05:14:20;;;;;;;72.50;39.23;;;;;;;;;;746908;186;627823;-63
2022/07/06 05:16:46;;;;;;;78.43;42.27;;;;;;;;;;747991;187;636617;-63
2022/07/06 05:19:12;;;;;;;68.10;38.87;;;;;;;;;;745861;187;624628;-63
2022/07/06 05:21:38;;;;;;;64.40;38.50;;;;;;;;;;747206;186;625501;-62
2022/07/06 05:24:05;;;;;;;56.57;35.80;;;;;;;;;;745609;187;635650;-63
2022/07/06 05:26:30;;;;;;;59.63;37.67;;;;;;;;;;743273;186;624680;-62
2022/07/06 05:28:57;;;;;;;64.47;37.43;;;;;;;;;;746734;188;631131;-63
2022/07/06 05:31:23;;;;;;;61.77;37.13;;;;;;;;;;745257;187;629064;-63
2022/07/06 05:33:50;;;;;;;53.70;33.57;;;;;;;;;;742528;188;626360;-65
2022/07/06 05:36:16;;;;;;;56.87;37.20;;;;;;;;;;745360;188;629309;-63
2022/07/06 05:38:42;;;;;;;53.93;31.50;;;;;;;;;;743924;187;646907;-67
2022/07/06 05:41:07;;;;;;;49.40;32.30;;;;;;;;;;736529;189;650310;-66
2022/07/06 05:43:33;;;;;;;50.03;30.70;;;;;;;;;;736013;188;618274;-65
2022/07/06 05:45:59;;;;;;;40.50;29.63;;;;;;;;;;740164;189;635967;-65
2022/07/06 05:50:56;;;;;;;43.83;26.13;;;;;;;;;;745432;187;625487;-66
2022/07/06 05:53:23;;;;;;;30.23;25.08;;;;;;;;;;748963;188;630829;-65
2022/07/06 05:55:49;;;;;;;35.77;24.03;;;;;;;;;;748309;187;638050;-66
2022/07/06 05:58:15;;;;;;;28.70;23.30;;;;;;;;;;745056;187;633319;-68
2022/07/06 06:00:41;;;;;;;32.63;24.75;;;;;;;;;;736665;189;1578654;-65
2022/07/06 06:03:06;;;;;;;31.10;22.87;;;;;;;;;;747444;189;621926;-66
2022/07/06 06:05:32;;;;;;;26.80;23.00;;;;;;;;;;740395;187;621574;-65
2022/07/06 06:07:58;;;;;;;28.23;21.87;;;;;;;;;;743692;187;627418;-66
2022/07/06 06:10:25;;;;;;;31.63;22.20;;;;;;;;;;749456;187;615488;-67
2022/07/06 06:12:51;;;;;;;28.63;19.80;;;;;;;;;;743711;187;623974;-66
2022/07/06 06:15:17;;;;;;;19.40;17.30;;;;;;;;;;743324;189;621516;-65
2022/07/06 06:17:43;;;;;;;25.53;16.50;;;;;;;;;;743956;187;671545;-65
2022/07/06 06:20:09;;;;;;;22.77;15.90;;;;;;;;;;751223;183;625757;-66
2022/07/06 06:22:41;;;;;;;18.53;16.60;;;;;;;;;;744647;188;622730;-66
2022/07/06 06:25:08;;;;;;;18.50;16.03;;;;;;;;;;744193;187;655404;-65
2022/07/06 06:27:35;;;;;;;16.10;14.40;;;;;;;;;;748308;188;643385;-65
2022/07/06 06:30:01;;;;;;;25.00;14.90;;;;;;;;;;742897;188;639427;-65
2022/07/06 06:32:28;;;;;;;14.70;13.13;;;;;;;;;;743410;187;629631;-65
2022/07/06 06:34:54;;;;;;;18.43;12.50;;;;;;;;;;745617;187;627127;-65
2022/07/06 06:37:20;;;;;;;15.83;12.30;;;;;;;;;;747936;188;630553;-65
2022/07/06 06:39:46;;;;;;;16.77;13.10;;;;;;;;;;744672;188;628723;-66
2022/07/06 06:42:11;;;;;;;12.17;10.90;;;;;;;;;;745074;189;633777;-64
2022/07/06 06:44:37;;;;;;;11.90;10.67;;;;;;;;;;749665;187;627762;-64
2022/07/06 06:47:03;;;;;;;10.90;7.60;;;;;;;;;;743681;187;636030;-65
2022/07/06 06:49:29;;;;;;;11.40;7.90;;;;;;;;;;743689;188;644971;-65
2022/07/06 06:51:55;;;;;;;9.77;8.77;;;;;;;;;;747912;187;629502;-64
2022/07/06 06:54:21;;;;;;;10.43;8.63;;;;;;;;;;747196;187;619875;-65
2022/07/06 06:56:47;;;;;;;10.70;7.90;;;;;;;;;;743079;189;655292;-66
2022/07/06 06:59:12;;;;;;;13.87;8.20;;;;;;;;;;742522;188;666136;-64
2022/07/06 07:01:38;;;;;;;7.37;6.60;;;;;;;;;;746404;189;623632;-65
2022/07/06 07:04:05;;;;;;;10.73;7.00;;;;;;;;;;742546;187;623822;-66
2022/07/06 07:06:30;;;;;;;12.73;7.70;;;;;;;;;;744473;187;642089;-65
2022/07/06 07:08:56;;;;;;;7.93;6.43;;;;;;;;;;746554;187;631354;-65
2022/07/06 07:11:22;;;;;;;7.57;6.37;;;;;;;;;;741270;187;619834;-66
2022/07/06 07:13:48;;;;;;;8.13;6.00;;;;;;;;;;743860;188;664803;-65
2022/07/06 07:16:13;;;;;;;10.43;7.00;;;;;;;;;;748029;187;636185;-65
2022/07/06 07:18:40;;;;;;;8.00;5.90;;;;;;;;;;742596;187;635625;-66
2022/07/06 07:21:07;;;;;;;8.70;6.17;;;;;;;;;;743580;189;623682;-66
2022/07/06 07:23:33;;;;;;;8.47;7.57;;;;;;;;;;742918;187;640624;-65
2022/07/06 07:25:59;;;;;;;9.30;6.70;;;;;;;;;;742293;187;675107;-67
2022/07/06 07:28:26;;;;;;;10.37;6.47;;;;;;;;;;743217;187;626755;-65
2022/07/06 07:30:52;;;;;;;9.87;7.70;;;;;;;;;;743686;187;640787;-65
2022/07/06 07:33:18;;;;;;;10.20;8.30;;;;;;;;;;751769;186;823156;-66
2022/07/06 07:35:43;;;;;;;10.33;9.23;;;;;;;;;;744077;188;635712;-65
2022/07/06 07:38:10;;;;;;;9.93;8.33;;;;;;;;;;743332;188;624079;-64
2022/07/06 07:40:35;;;;;;;9.43;8.40;;;;;;;;;;754276;186;627142;-65
2022/07/06 07:43:01;;;;;;;12.77;8.90;;;;;;;;;;745262;187;631852;-64
2022/07/06 07:45:27;;;;;;;9.67;8.67;;;;;;;;;;744658;188;639261;-65
2022/07/06 07:47:53;;;;;;;15.80;9.50;;;;;;;;;;745213;188;630763;-65
2022/07/06 07:50:19;;;;;;;13.10;9.17;;;;;;;;;;749100;186;633770;-65
2022/07/06 07:52:45;;;;;;;18.43;9.80;;;;;;;;;;744052;189;634223;-64
2022/07/06 07:55:11;;;;;;;20.23;12.00;;;;;;;;;;745122;187;634008;-64
2022/07/06 07:57:37;;;;;;;11.37;10.10;;;;;;;;;;743241;188;634994;-65
2022/07/06 08:00:03;;;;;;;15.13;11.73;;;;;;;;;;739758;188;646963;-65
2022/07/06 08:02:28;;;;;;;15.60;11.60;;;;;;;;;;739495;188;631281;-65
2022/07/06 08:04:54;;;;;;;14.67;11.50;;;;;;;;;;744456;188;624817;-67
2022/07/06 08:07:20;;;;;;;17.00;10.50;;;;;;;;;;741218;188;628534;-66
2022/07/06 08:09:47;;;;;;;12.30;10.20;;;;;;;;;;738830;188;627723;-65
2022/07/06 08:12:13;;;;;;;16.70;9.97;;;;;;;;;;744324;188;628981;-66
2022/07/06 08:14:39;;;;;;;11.83;10.63;;;;;;;;;;735291;190;633758;-66
2022/07/06 08:17:06;;;;;;;14.23;10.70;;;;;;;;;;744127;187;632801;-68
2022/07/06 08:19:32;;;;;;;13.53;10.40;;;;;;;;;;743420;189;641489;-66
2022/07/06 08:22:00;;;;;;;14.43;10.10;;;;;;;;;;750735;187;633075;-66
2022/07/06 08:24:28;;;;;;;10.93;9.83;;;;;;;;;;743609;187;615843;-65
2022/07/06 08:26:58;;;;;;;11.13;10.03;;;;;;;;;;744435;187;621388;-66
2022/07/06 08:29:21;;;;;;;13.90;11.57;;;;;;;;;;742999;186;630234;-67
2022/07/06 08:31:47;;;;;;;13.60;10.70;;;;;;;;;;748947;187;628078;-66
2022/07/06 08:34:14;;;;;;;19.53;10.50;;;;;;;;;;745610;187;630385;-67
2022/07/06 08:36:39;;;;;;;11.97;9.43;;;;;;;;;;744969;187;634595;-67
2022/07/06 08:39:05;;;;;;;16.60;11.57;;;;;;;;;;749695;187;630576;-65
2022/07/06 08:41:31;;;;;;;11.00;8.90;;;;;;;;;;742039;187;631994;-64
2022/07/06 08:43:57;;;;;;;10.47;8.10;;;;;;;;;;748426;186;634692;-65
2022/07/06 08:46:23;;;;;;;12.70;7.67;;;;;;;;;;749377;187;628106;-64
2022/07/06 08:48:49;;;;;;;13.33;7.60;;;;;;;;;;743605;188;623012;-64
2022/07/06 08:51:15;;;;;;;14.20;7.30;;;;;;;;;;745225;188;635543;-65
2022/07/06 08:53:41;;;;;;;15.90;6.63;;;;;;;;;;741172;186;637255;-64
2022/07/06 08:56:07;;;;;;;15.37;6.40;;;;;;;;;;752887;185;919460;-65
2022/07/06 08:58:33;;;;;;;9.57;6.10;;;;;;;;;;746208;187;637044;-64
2022/07/06 09:00:59;;;;;;;7.70;5.10;;;;;;;;;;744295;187;627443;-65
2022/07/06 09:03:25;;;;;;;5.30;4.73;;;;;;;;;;744498;188;641157;-64
2022/07/06 09:05:50;;;;;;;5.70;3.73;;;;;;;;;;744180;187;642296;-65
2022/07/06 09:08:16;;;;;;;4.93;4.37;;;;;;;;;;743727;186;695639;-65
2022/07/06 09:10:42;;;;;;;9.33;4.17;;;;;;;;;;747709;188;617298;-66
2022/07/06 09:13:08;;;;;;;4.80;3.60;;;;;;;;;;744760;187;634484;-64
2022/07/06 09:15:34;;;;;;;7.63;4.37;;;;;;;;;;742877;187;628594;-65
2022/07/06 09:18:00;;;;;;;10.33;7.93;;;;;;;;;;743637;188;644317;-63
2022/07/06 09:20:26;;;;;;;5.97;4.83;;;;;;;;;;739967;189;628415;-64
2022/07/06 09:22:51;;;;;;;10.57;9.60;;;;;;;;;;744642;187;638255;-65
2022/07/06 09:25:17;;;;;;;4.80;4.30;;;;;;;;;;747410;187;623838;-63
2022/07/06 09:27:45;;;;;;;5.53;4.30;;;;;;;;;;747476;186;633307;-65
2022/07/06 09:30:10;;;;;;;5.90;4.87;;;;;;;;;;746250;187;637066;-64
2022/07/06 09:32:38;;;;;;;4.40;4.00;;;;;;;;;;742085;186;644620;-63
2022/07/06 09:35:04;;;;;;;7.60;4.13;;;;;;;;;;746735;187;628459;-63
2022/07/06 09:37:30;;;;;;;6.47;4.87;;;;;;;;;;744359;187;646275;-69
2022/07/06 09:39:56;;;;;;;6.13;4.57;;;;;;;;;;741773;187;631079;-63
2022/07/06 09:42:26;;;;;;;7.30;4.60;;;;;;;;;;746961;187;634113;-63
2022/07/06 09:44:51;;;;;;;5.50;4.07;;;;;;;;;;747638;189;628740;-63
2022/07/06 09:47:17;;;;;;;10.10;6.33;;;;;;;;;;741782;189;654930;-63
2022/07/06 09:49:43;;;;;;;7.27;5.60;;;;;;;;;;742323;188;657941;-64
2022/07/06 09:52:08;;;;;;;5.57;4.90;;;;;;;;;;746544;187;637979;-65
2022/07/06 09:54:35;;;;;;;6.00;5.40;;;;;;;;;;732352;189;625314;-64
2022/07/06 09:57:02;;;;;;;5.20;4.70;;;;;;;;;;744032;187;639225;-67
2022/07/06 09:59:28;;;;;;;16.97;5.57;;;;;;;;;;744746;188;620031;-63
2022/07/06 10:01:56;;;;;;;10.43;6.40;;;;;;;;;;753591;184;621754;-63
2022/07/06 10:04:23;;;;;;;4.97;4.47;;;;;;;;;;744304;188;678085;-63
2022/07/06 10:06:49;;;;;;;5.27;4.77;;;;;;;;;;744109;187;643046;-63
2022/07/06 10:09:14;;;;;;;7.00;5.40;;;;;;;;;;746500;187;640810;-63
2022/07/06 10:11:40;;;;;;;5.93;4.53;;;;;;;;;;747076;186;679973;-64
2022/07/06 10:14:06;;;;;;;8.27;4.00;;;;;;;;;;747565;187;633278;-65
2022/07/06 10:16:32;;;;;;;6.93;3.77;;;;;;;;;;742536;187;621845;-65
2022/07/06 10:18:58;;;;;;;6.90;4.43;;;;;;;;;;744625;186;627728;-65
2022/07/06 10:21:24;;;;;;;4.50;3.60;;;;;;;;;;745507;187;641024;-64
2022/07/06 10:23:50;;;;;;;4.07;3.67;;;;;;;;;;742672;188;676512;-63
2022/07/06 10:26:17;;;;;;;4.37;3.97;;;;;;;;;;753442;183;650675;-64
2022/07/06 10:28:43;;;;;;;4.67;4.00;;;;;;;;;;742639;187;624716;-63
2022/07/06 10:31:09;;;;;;;4.47;3.50;;;;;;;;;;741575;188;653654;-65
2022/07/06 10:33:34;;;;;;;4.80;4.20;;;;;;;;;;748912;188;632073;-64
2022/07/06 10:36:00;;;;;;;3.33;2.97;;;;;;;;;;742760;187;630951;-65
2022/07/06 10:38:34;;;;;;;6.27;4.07;;;;;;;;;;742543;189;631133;-65
2022/07/06 10:41:02;;;;;;;4.07;3.57;;;;;;;;;;744247;186;634894;-65
2022/07/06 10:43:31;;;;;;;5.57;4.03;;;;;;;;;;747106;187;628363;-67
2022/07/06 10:45:57;;;;;;;4.07;2.90;;;;;;;;;;741453;189;633059;-66
2022/07/06 10:48:23;;;;;;;3.30;2.63;;;;;;;;;;743563;188;617699;-66
2022/07/06 10:50:50;;;;;;;4.23;3.47;;;;;;;;;;747847;187;619947;-67
2022/07/06 10:53:17;;;;;;;4.83;2.90;;;;;;;;;;745468;187;645271;-66
2022/07/06 10:55:43;;;;;;;4.97;3.67;;;;;;;;;;746276;187;627576;-66
2022/07/06 10:58:10;;;;;;;4.00;3.43;;;;;;;;;;743411;188;618890;-66
2022/07/06 11:00:40;;;;;;;4.00;3.60;;;;;;;;;;746065;188;643097;-65
2022/07/06 11:03:12;;;;;;;7.00;3.30;;;;;;;;;;741728;187;627433;-67
2022/07/06 11:05:39;;;;;;;6.53;3.53;;;;;;;;;;740425;189;630113;-67
2022/07/06 11:08:05;;;;;;;5.83;3.73;;;;;;;;;;746251;188;649909;-67
2022/07/06 11:10:31;;;;;;;3.80;3.07;;;;;;;;;;748680;187;696733;-66
2022/07/06 11:13:00;;;;;;;25.03;4.90;;;;;;;;;;746031;183;638403;-67
2022/07/06 11:15:31;;;;;;;5.10;4.60;;;;;;;;;;744792;186;625113;-67
2022/07/06 11:18:15;;;;;;;4.20;3.20;;;;;;;;;;745761;187;629170;-69
2022/07/06 11:20:41;;;;;;;4.13;3.50;;;;;;;;;;748611;185;629108;-67
2022/07/06 11:23:07;;;;;;;5.23;4.73;;;;;;;;;;746431;188;628281;-67
2022/07/06 11:25:33;;;;;;;17.43;9.27;;;;;;;;;;744037;187;624618;-66
2022/07/06 11:28:01;;;;;;;5.23;4.20;;;;;;;;;;749143;187;619594;-66
2022/07/06 11:30:26;;;;;;;5.40;4.67;;;;;;;;;;746934;189;629406;-69
2022/07/06 11:32:52;;;;;;;5.13;3.27;;;;;;;;;;745866;188;636957;-68
2022/07/06 11:35:21;;;;;;;4.37;3.60;;;;;;;;;;744846;189;626105;-67
2022/07/06 11:37:47;;;;;;;4.00;2.63;;;;;;;;;;749629;187;657210;-67
2022/07/06 11:40:13;;;;;;;5.07;4.03;;;;;;;;;;747603;187;641084;-68
2022/07/06 11:42:40;;;;;;;3.70;3.30;;;;;;;;;;744404;187;626904;-68
2022/07/06 11:45:06;;;;;;;3.90;3.50;;;;;;;;;;741837;188;658656;-67
2022/07/06 11:47:32;;;;;;;4.97;3.30;;;;;;;;;;745614;188;619164;-68
2022/07/06 11:49:58;;;;;;;4.37;2.83;;;;;;;;;;742035;188;623436;-69
2022/07/06 11:52:23;;;;;;;4.90;2.33;;;;;;;;;;742237;189;634781;-68
2022/07/06 11:54:49;;;;;;;3.70;3.07;;;;;;;;;;753446;187;631717;-68
2022/07/06 11:57:15;;;;;;;3.00;2.60;;;;;;;;;;740945;189;632040;-69
2022/07/06 11:59:41;;;;;;;4.67;3.23;;;;;;;;;;742440;188;636176;-69
2022/07/06 12:02:07;;;;;;;3.20;2.60;;;;;;;;;;745661;187;895970;-66
2022/07/06 12:04:33;;;;;;;3.07;2.10;;;;;;;;;;747474;187;619797;-68
2022/07/06 12:06:59;;;;;;;6.90;2.60;;;;;;;;;;742422;187;717035;-68
2022/07/06 12:09:25;;;;;;;3.70;2.37;;;;;;;;;;744346;188;654645;-68
2022/07/06 12:11:51;;;;;;;3.60;2.10;;;;;;;;;;748255;187;633948;-67
2022/07/06 12:14:17;;;;;;;4.83;2.37;;;;;;;;;;742169;187;619385;-69
2022/07/06 12:16:43;;;;;;;3.80;2.80;;;;;;;;;;736738;187;646463;-69
2022/07/06 12:19:11;;;;;;;2.90;2.20;;;;;;;;;;752647;185;621606;-69
2022/07/06 12:21:35;;;;;;;4.30;2.17;;;;;;;;;;744560;187;646746;-69
2022/07/06 12:24:00;;;;;;;2.67;1.87;;;;;;;;;;745085;187;761903;-68
2022/07/06 12:26:28;;;;;;;4.23;2.30;;;;;;;;;;743596;188;1222356;-67
2022/07/06 12:28:58;;;;;;;3.80;1.80;;;;;;;;;;753220;184;625386;-68
2022/07/06 12:31:30;;;;;;;2.60;1.90;;;;;;;;;;747197;187;634024;-68
2022/07/06 12:33:57;;;;;;;3.80;2.33;;;;;;;;;;747275;187;632115;-68
2022/07/06 12:36:22;;;;;;;3.53;2.60;;;;;;;;;;743748;188;632370;-67
2022/07/06 12:38:48;;;;;;;3.33;2.10;;;;;;;;;;753097;187;635632;-68
2022/07/06 12:41:20;;;;;;;8.60;2.30;;;;;;;;;;745315;187;622162;-69
2022/07/06 12:43:46;;;;;;;3.13;1.90;;;;;;;;;;743550;187;634672;-68
2022/07/06 12:46:17;;;;;;;3.93;2.43;;;;;;;;;;747931;188;639740;-68
2022/07/06 12:48:49;;;;;;;6.43;3.37;;;;;;;;;;750122;188;625350;-68
2022/07/06 12:51:15;;;;;;;2.80;2.43;;;;;;;;;;741848;188;631759;-68
2022/07/06 12:53:41;;;;;;;5.23;2.80;;;;;;;;;;749285;186;617980;-68
2022/07/06 12:56:07;;;;;;;3.53;2.40;;;;;;;;;;752591;186;629517;-68
2022/07/06 12:58:33;;;;;;;4.87;2.30;;;;;;;;;;741294;189;630647;-68
2022/07/06 13:00:59;;;;;;;5.30;2.70;;;;;;;;;;740977;188;633751;-68
2022/07/06 13:03:25;;;;;;;4.20;2.80;;;;;;;;;;746492;186;638214;-67
2022/07/06 13:05:51;;;;;;;3.23;2.40;;;;;;;;;;750699;187;627734;-67
2022/07/06 13:08:17;;;;;;;3.87;3.30;;;;;;;;;;741690;187;627507;-67
2022/07/06 13:10:44;;;;;;;5.13;2.10;;;;;;;;;;743866;187;634942;-68
2022/07/06 13:13:08;;;;;;;3.70;2.20;;;;;;;;;;744661;186;637996;-67
2022/07/06 13:15:34;;;;;;;3.40;1.90;;;;;;;;;;741945;187;624564;-68
2022/07/06 13:18:00;;;;;;;3.35;2.22;;;;;;;;;;744261;188;685654;-67
2022/07/06 13:20:26;;;;;;;3.83;1.93;;;;;;;;;;746222;187;653705;-68
2022/07/06 13:22:52;;;;;;;3.80;2.33;;;;;;;;;;744468;187;655671;-67
2022/07/06 13:25:18;;;;;;;3.03;2.30;;;;;;;;;;744047;187;653929;-69
2022/07/06 13:27:43;;;;;;;3.00;2.40;;;;;;;;;;742142;187;630732;-67
2022/07/06 13:30:10;;;;;;;2.93;1.77;;;;;;;;;;751928;185;619011;-67
2022/07/06 13:32:36;;;;;;;2.70;1.87;;;;;;;;;;744503;187;630158;-67
2022/07/06 13:35:01;;;;;;;4.20;2.10;;;;;;;;;;746323;186;637552;-67
2022/07/06 13:37:27;;;;;;;2.73;2.17;;;;;;;;;;751141;188;615986;-67
2022/07/06 13:39:53;;;;;;;3.10;2.00;;;;;;;;;;747253;187;638341;-68
2022/07/06 13:42:19;;;;;;;3.13;2.10;;;;;;;;;;746834;187;635375;-68
2022/07/06 13:44:45;;;;;;;3.50;2.30;;;;;;;;;;744095;188;630466;-67
2022/07/06 13:47:11;;;;;;;4.37;2.23;;;;;;;;;;746261;187;629157;-68
2022/07/06 13:49:36;;;;;;;3.60;2.07;;;;;;;;;;746553;187;634464;-68
2022/07/06 13:52:03;;;;;;;2.73;1.93;;;;;;;;;;744609;187;643508;-66
2022/07/06 13:54:29;;;;;;;7.27;2.67;;;;;;;;;;740579;189;625200;-68
2022/07/06 13:56:55;;;;;;;5.17;2.33;;;;;;;;;;735851;189;649004;-69
2022/07/06 13:59:20;;;;;;;3.53;2.53;;;;;;;;;;738469;190;639683;-69
2022/07/06 14:01:46;;;;;;;3.53;2.40;;;;;;;;;;741496;191;626577;-68
2022/07/06 14:04:12;;;;;;;3.37;2.50;;;;;;;;;;746607;187;790791;-68
2022/07/06 14:06:38;;;;;;;3.70;2.20;;;;;;;;;;743207;188;918450;-69
2022/07/06 14:09:05;;;;;;;3.03;2.50;;;;;;;;;;750060;187;616356;-67
2022/07/06 14:11:31;;;;;;;3.90;2.20;;;;;;;;;;742538;188;675166;-69